createdAt,value
2016-07-20T00:00:53.527Z,0
2016-07-20T00:01:53.506Z,0
2016-07-20T00:02:53.496Z,0
2016-07-20T00:03:53.487Z,0
2016-07-20T00:04:53.459Z,0
2016-07-20T00:05:53.446Z,0
2016-07-20T00:06:53.431Z,0
2016-07-20T00:07:53.411Z,0
2016-07-20T00:08:53.395Z,0
2016-07-20T00:09:53.380Z,0
2016-07-20T00:10:53.367Z,0
2016-07-20T00:11:53.346Z,0
2016-07-20T00:12:53.343Z,0
2016-07-20T00:13:53.314Z,0
2016-07-20T00:14:53.302Z,0
2016-07-20T00:15:53.285Z,0
2016-07-20T00:16:53.267Z,0
2016-07-20T00:17:53.251Z,0
2016-07-20T00:18:53.239Z,0
2016-07-20T00:19:53.219Z,0
2016-07-20T00:20:53.201Z,0
2016-07-20T00:21:53.185Z,0
2016-07-20T00:22:53.171Z,0
2016-07-20T00:23:53.150Z,0
2016-07-20T00:24:53.142Z,0
2016-07-20T00:25:53.120Z,0
2016-07-20T00:26:53.110Z,0
2016-07-20T00:27:53.089Z,0
2016-07-20T00:28:53.070Z,0
2016-07-20T00:29:53.052Z,0
2016-07-20T00:30:53.042Z,0
2016-07-20T00:31:53.026Z,0
2016-07-20T00:32:53.007Z,0
2016-07-20T00:33:52.988Z,0
2016-07-20T00:34:52.973Z,0
2016-07-20T00:35:52.959Z,0
2016-07-20T00:36:52.947Z,0
2016-07-20T00:37:52.921Z,0
2016-07-20T00:38:52.909Z,0
2016-07-20T00:39:52.888Z,0
2016-07-20T00:40:52.875Z,0
2016-07-20T00:41:52.855Z,0
2016-07-20T00:42:52.841Z,0
2016-07-20T00:43:52.826Z,0
2016-07-20T00:44:52.809Z,0
2016-07-20T00:45:52.792Z,0
2016-07-20T00:46:52.771Z,0
2016-07-20T00:47:52.759Z,0
2016-07-20T00:48:52.739Z,0
2016-07-20T00:49:52.720Z,0
2016-07-20T00:50:52.708Z,0
2016-07-20T00:51:53.380Z,0
2016-07-20T00:52:52.673Z,0
2016-07-20T00:53:52.666Z,0
2016-07-20T00:54:52.639Z,0
2016-07-20T00:55:52.627Z,0
2016-07-20T00:56:52.601Z,0
2016-07-20T00:57:52.593Z,0
2016-07-20T00:58:52.570Z,0
2016-07-20T00:59:52.560Z,0
2016-07-20T01:00:52.538Z,0
2016-07-20T01:01:52.519Z,0
2016-07-20T01:02:52.507Z,0
2016-07-20T01:03:52.488Z,0
2016-07-20T01:04:52.468Z,0
2016-07-20T01:05:52.457Z,0
2016-07-20T01:06:52.437Z,0
2016-07-20T01:07:52.420Z,0
2016-07-20T01:08:52.404Z,0
2016-07-20T01:09:52.384Z,0
2016-07-20T01:10:52.367Z,0
2016-07-20T01:11:52.355Z,0
2016-07-20T01:12:52.334Z,0
2016-07-20T01:13:52.325Z,0
2016-07-20T01:14:52.303Z,0
2016-07-20T01:15:52.288Z,0
2016-07-20T01:16:52.272Z,0
2016-07-20T01:17:52.251Z,0
2016-07-20T01:18:52.232Z,0
2016-07-20T01:19:52.218Z,0
2016-07-20T01:20:52.199Z,0
2016-07-20T01:21:52.879Z,0
2016-07-20T01:22:52.166Z,0
2016-07-20T01:23:52.146Z,0
2016-07-20T01:24:52.132Z,0
2016-07-20T01:25:52.111Z,0
2016-07-20T01:26:52.098Z,0
2016-07-20T01:27:52.080Z,0
2016-07-20T01:28:52.068Z,0
2016-07-20T01:29:52.047Z,0
2016-07-20T01:30:52.027Z,0
2016-07-20T01:31:52.015Z,0
2016-07-20T01:32:51.993Z,0
2016-07-20T01:33:51.982Z,0
2016-07-20T01:34:51.963Z,0
2016-07-20T01:35:51.943Z,0
2016-07-20T01:36:51.929Z,0
2016-07-20T01:37:51.910Z,0
2016-07-20T01:38:51.892Z,0
2016-07-20T01:39:51.876Z,0
2016-07-20T01:40:51.856Z,0
2016-07-20T01:41:51.842Z,0
2016-07-20T01:42:51.823Z,0
2016-07-20T01:43:51.808Z,0
2016-07-20T01:44:51.787Z,0
2016-07-20T01:45:51.775Z,0
2016-07-20T01:46:51.758Z,0
2016-07-20T01:47:51.735Z,0
2016-07-20T01:48:51.722Z,0
2016-07-20T01:49:51.701Z,0
2016-07-20T01:50:51.687Z,0
2016-07-20T01:51:51.674Z,0
2016-07-20T01:52:51.653Z,0
2016-07-20T01:53:52.336Z,0
2016-07-20T01:54:51.618Z,0
2016-07-20T01:55:51.607Z,0
2016-07-20T01:56:51.580Z,0
2016-07-20T01:57:51.567Z,0
2016-07-20T01:58:51.548Z,0
2016-07-20T01:59:51.528Z,0
2016-07-20T02:00:51.527Z,0
2016-07-20T02:01:51.499Z,0
2016-07-20T02:02:51.482Z,0
2016-07-20T02:03:51.463Z,0
2016-07-20T02:04:51.441Z,0
2016-07-20T02:05:51.425Z,0
2016-07-20T02:06:51.406Z,0
2016-07-20T02:07:51.394Z,0
2016-07-20T02:08:51.374Z,0
2016-07-20T02:09:51.353Z,0
2016-07-20T02:10:51.347Z,0
2016-07-20T02:11:51.319Z,0
2016-07-20T02:12:51.313Z,0
2016-07-20T02:13:51.286Z,0
2016-07-20T02:14:51.265Z,0
2016-07-20T02:15:51.253Z,0
2016-07-20T02:16:51.236Z,0
2016-07-20T02:17:51.214Z,0
2016-07-20T02:18:51.195Z,0
2016-07-20T02:19:51.182Z,0
2016-07-20T02:20:51.172Z,0
2016-07-20T02:21:51.143Z,0
2016-07-20T02:22:51.130Z,0
2016-07-20T02:23:51.110Z,0
2016-07-20T02:24:51.090Z,0
2016-07-20T02:25:51.081Z,0
2016-07-20T02:26:51.063Z,0
2016-07-20T02:27:51.036Z,0
2016-07-20T02:28:51.023Z,0
2016-07-20T02:29:51.005Z,0
2016-07-20T02:30:50.987Z,0
2016-07-20T02:31:50.968Z,0
2016-07-20T02:32:50.949Z,0
2016-07-20T02:33:50.935Z,0
2016-07-20T02:34:50.913Z,0
2016-07-20T02:35:50.906Z,0
2016-07-20T02:36:50.887Z,0
2016-07-20T02:37:50.867Z,0
2016-07-20T02:38:50.845Z,0
2016-07-20T02:39:50.826Z,0
2016-07-20T02:40:50.808Z,0
2016-07-20T02:41:50.792Z,0
2016-07-20T02:42:50.771Z,0
2016-07-20T02:43:50.757Z,0
2016-07-20T02:44:50.738Z,0
2016-07-20T02:45:50.718Z,0
2016-07-20T02:46:50.705Z,0
2016-07-20T02:47:50.688Z,4
2016-07-20T02:48:50.669Z,4
2016-07-20T02:49:50.650Z,4
2016-07-20T02:50:50.633Z,0
2016-07-20T02:51:50.627Z,0
2016-07-20T02:52:50.595Z,4
2016-07-20T02:53:50.580Z,4
2016-07-20T02:54:50.560Z,4
2016-07-20T02:55:50.542Z,4
2016-07-20T02:56:50.529Z,8
2016-07-20T02:57:50.509Z,4
2016-07-20T02:58:50.491Z,4
2016-07-20T02:59:50.471Z,8
2016-07-20T03:00:50.454Z,8
2016-07-20T03:01:50.436Z,8
2016-07-20T03:02:50.415Z,12
2016-07-20T03:03:50.402Z,16
2016-07-20T03:04:50.384Z,12
2016-07-20T03:05:50.364Z,16
2016-07-20T03:06:50.349Z,20
2016-07-20T03:07:50.331Z,20
2016-07-20T03:08:50.312Z,24
2016-07-20T03:09:50.294Z,28
2016-07-20T03:10:50.288Z,32
2016-07-20T03:11:50.257Z,36
2016-07-20T03:12:50.235Z,44
2016-07-20T03:13:50.222Z,44
2016-07-20T03:14:50.201Z,52
2016-07-20T03:15:50.184Z,60
2016-07-20T03:16:50.167Z,68
2016-07-20T03:17:50.146Z,76
2016-07-20T03:18:50.131Z,84
2016-07-20T03:19:50.115Z,96
2016-07-20T03:20:50.097Z,108
2016-07-20T03:21:50.077Z,120
2016-07-20T03:22:50.064Z,136
2016-07-20T03:23:50.040Z,152
2016-07-20T03:24:50.025Z,164
2016-07-20T03:25:50.005Z,180
2016-07-20T03:26:49.986Z,200
2016-07-20T03:27:49.973Z,220
2016-07-20T03:28:49.952Z,244
2016-07-20T03:29:49.933Z,264
2016-07-20T03:30:49.913Z,288
2016-07-20T03:31:49.899Z,312
2016-07-20T03:32:49.882Z,344
2016-07-20T03:33:49.859Z,368
2016-07-20T03:34:49.844Z,400
2016-07-20T03:35:49.827Z,428
2016-07-20T03:36:49.806Z,464
2016-07-20T03:37:49.795Z,496
2016-07-20T03:38:49.772Z,532
2016-07-20T03:39:49.751Z,568
2016-07-20T03:40:49.740Z,604
2016-07-20T03:41:49.717Z,644
2016-07-20T03:42:49.696Z,684
2016-07-20T03:43:49.689Z,728
2016-07-20T03:44:49.658Z,772
2016-07-20T03:45:49.646Z,816
2016-07-20T03:46:49.625Z,864
2016-07-20T03:47:49.606Z,916
2016-07-20T03:48:49.601Z,968
2016-07-20T03:49:49.574Z,1016
2016-07-20T03:50:49.555Z,1068
2016-07-20T03:51:49.537Z,1120
2016-07-20T03:52:49.517Z,1180
2016-07-20T03:53:49.499Z,1232
2016-07-20T03:54:49.484Z,1288
2016-07-20T03:55:49.463Z,1348
2016-07-20T03:56:49.446Z,1408
2016-07-20T03:57:50.120Z,1464
2016-07-20T03:58:49.409Z,1524
2016-07-20T03:59:49.393Z,1584
2016-07-20T04:00:49.372Z,1648
2016-07-20T04:01:50.052Z,1708
2016-07-20T04:02:49.344Z,1768
2016-07-20T04:03:49.319Z,1832
2016-07-20T04:04:49.303Z,1896
2016-07-20T04:05:49.280Z,1956
2016-07-20T04:06:49.266Z,2016
2016-07-20T04:07:49.246Z,2076
2016-07-20T04:08:49.229Z,2136
2016-07-20T04:09:49.237Z,2196
2016-07-20T04:10:49.193Z,2252
2016-07-20T04:11:49.178Z,2316
2016-07-20T04:12:49.159Z,2376
2016-07-20T04:13:49.139Z,2436
2016-07-20T04:14:49.125Z,2500
2016-07-20T04:15:49.107Z,2568
2016-07-20T04:16:49.091Z,2624
2016-07-20T04:17:49.072Z,2672
2016-07-20T04:18:49.053Z,2712
2016-07-20T04:19:49.035Z,2760
2016-07-20T04:20:49.022Z,2812
2016-07-20T04:21:49.004Z,2860
2016-07-20T04:22:48.985Z,2908
2016-07-20T04:23:48.967Z,2956
2016-07-20T04:24:48.949Z,3000
2016-07-20T04:25:48.926Z,3052
2016-07-20T04:26:48.914Z,3096
2016-07-20T04:27:48.893Z,3140
2016-07-20T04:28:48.878Z,3184
2016-07-20T04:29:48.859Z,3232
2016-07-20T04:30:48.840Z,3272
2016-07-20T04:31:48.824Z,3316
2016-07-20T04:32:48.804Z,3360
2016-07-20T04:33:48.790Z,3404
2016-07-20T04:34:48.773Z,3444
2016-07-20T04:35:48.753Z,3484
2016-07-20T04:36:48.734Z,3532
2016-07-20T04:37:48.717Z,3568
2016-07-20T04:38:48.703Z,3612
2016-07-20T04:39:48.683Z,3648
2016-07-20T04:40:48.665Z,3688
2016-07-20T04:41:48.654Z,3724
2016-07-20T04:42:48.629Z,3764
2016-07-20T04:43:48.614Z,3804
2016-07-20T04:44:48.596Z,3836
2016-07-20T04:45:48.575Z,3876
2016-07-20T04:46:48.564Z,3912
2016-07-20T04:47:48.539Z,3948
2016-07-20T04:48:48.524Z,3984
2016-07-20T04:49:48.600Z,4020
2016-07-20T04:50:48.495Z,4052
2016-07-20T04:51:48.634Z,4088
2016-07-20T04:52:48.454Z,4124
2016-07-20T04:53:48.435Z,4164
2016-07-20T04:54:48.597Z,4204
2016-07-20T04:55:48.402Z,4244
2016-07-20T04:56:48.385Z,4284
2016-07-20T04:57:48.368Z,4324
2016-07-20T04:58:48.353Z,4368
2016-07-20T04:59:48.509Z,4404
2016-07-20T05:00:48.320Z,4444
2016-07-20T05:01:48.305Z,4484
2016-07-20T05:02:48.283Z,4516
2016-07-20T05:03:48.263Z,4556
2016-07-20T05:04:48.770Z,4596
2016-07-20T05:05:48.231Z,4636
2016-07-20T05:06:48.212Z,4684
2016-07-20T05:07:48.198Z,4736
2016-07-20T05:08:48.894Z,4792
2016-07-20T05:09:48.162Z,4860
2016-07-20T05:10:48.147Z,4940
2016-07-20T05:11:48.125Z,5024
2016-07-20T05:12:48.112Z,5108
2016-07-20T05:13:48.091Z,5200
2016-07-20T05:14:48.078Z,5296
2016-07-20T05:15:48.059Z,5388
2016-07-20T05:16:48.040Z,5464
2016-07-20T05:17:48.038Z,5548
2016-07-20T05:18:48.028Z,5636
2016-07-20T05:19:47.988Z,5736
2016-07-20T05:20:47.978Z,5840
2016-07-20T05:21:47.957Z,5932
2016-07-20T05:22:48.639Z,6036
2016-07-20T05:23:47.933Z,6124
2016-07-20T05:24:47.906Z,6212
2016-07-20T05:25:47.893Z,6292
2016-07-20T05:26:47.873Z,6352
2016-07-20T05:27:47.859Z,6408
2016-07-20T05:28:47.840Z,6456
2016-07-20T05:29:47.830Z,6484
2016-07-20T05:30:47.810Z,6680
2016-07-20T05:31:47.807Z,6936
2016-07-20T05:32:47.808Z,7404
2016-07-20T05:33:47.852Z,7768
2016-07-20T05:34:47.746Z,8236
2016-07-20T05:35:47.734Z,9120
2016-07-20T05:36:47.726Z,8248
2016-07-20T05:37:47.794Z,7044
2016-07-20T05:38:48.374Z,6748
2016-07-20T05:39:47.691Z,6784
2016-07-20T05:40:47.697Z,7108
2016-07-20T05:41:47.630Z,7452
2016-07-20T05:42:47.619Z,7556
2016-07-20T05:43:47.603Z,7500
2016-07-20T05:44:47.599Z,7476
2016-07-20T05:45:47.624Z,7444
2016-07-20T05:46:47.577Z,7428
2016-07-20T05:47:47.545Z,7420
2016-07-20T05:48:47.957Z,7416
2016-07-20T05:49:48.488Z,7416
2016-07-20T05:50:47.646Z,7444
2016-07-20T05:51:47.483Z,7492
2016-07-20T05:52:47.471Z,7568
2016-07-20T05:53:47.455Z,7680
2016-07-20T05:54:47.439Z,7664
2016-07-20T05:55:47.464Z,7532
2016-07-20T05:56:47.496Z,7460
2016-07-20T05:57:47.401Z,7448
2016-07-20T05:58:48.100Z,7416
2016-07-20T05:59:47.374Z,7400
2016-07-20T06:00:47.358Z,7392
2016-07-20T06:01:47.351Z,7368
2016-07-20T06:02:47.328Z,7364
2016-07-20T06:03:47.579Z,7384
2016-07-20T06:04:47.465Z,7448
2016-07-20T06:05:47.287Z,7488
2016-07-20T06:06:47.278Z,7496
2016-07-20T06:07:47.259Z,7472
2016-07-20T06:08:48.637Z,7444
2016-07-20T06:09:47.240Z,7448
2016-07-20T06:10:47.227Z,7468
2016-07-20T06:11:47.223Z,7524
2016-07-20T06:12:47.197Z,7576
2016-07-20T06:13:47.188Z,7616
2016-07-20T06:14:47.171Z,7680
2016-07-20T06:15:47.164Z,7752
2016-07-20T06:16:47.150Z,7856
2016-07-20T06:17:47.135Z,8828
2016-07-20T06:18:47.128Z,14172
2016-07-20T06:19:47.120Z,21120
2016-07-20T06:20:47.106Z,24800
2016-07-20T06:21:47.092Z,23904
2016-07-20T06:22:47.091Z,23328
2016-07-20T06:23:47.068Z,24704
2016-07-20T06:24:47.061Z,25664
2016-07-20T06:25:47.060Z,24320
2016-07-20T06:26:47.034Z,23360
2016-07-20T06:27:47.028Z,21472
2016-07-20T06:28:47.023Z,19200
2016-07-20T06:29:47.004Z,18400
2016-07-20T06:30:47.053Z,17792
2016-07-20T06:31:47.010Z,15640
2016-07-20T06:32:46.998Z,14320
2016-07-20T06:33:47.037Z,13832
2016-07-20T06:34:46.964Z,13368
2016-07-20T06:35:46.977Z,13132
2016-07-20T06:36:47.063Z,12620
2016-07-20T06:37:46.942Z,12072
2016-07-20T06:38:46.930Z,12556
2016-07-20T06:39:46.906Z,22272
2016-07-20T06:40:46.902Z,38048
2016-07-20T06:41:46.890Z,57376
2016-07-20T06:42:47.596Z,71584
2016-07-20T06:43:47.054Z,73344
2016-07-20T06:44:46.998Z,58944
2016-07-20T06:45:46.910Z,42560
2016-07-20T06:46:46.861Z,36032
2016-07-20T06:47:46.842Z,34432
2016-07-20T06:48:46.909Z,33344
2016-07-20T06:49:46.870Z,33184
2016-07-20T06:50:47.646Z,34336
2016-07-20T06:51:47.045Z,36096
2016-07-20T06:52:47.185Z,36896
2016-07-20T06:53:46.847Z,37440
2016-07-20T06:54:46.952Z,38208
2016-07-20T06:55:47.149Z,37920
2016-07-20T06:56:46.774Z,37184
2016-07-20T06:57:46.814Z,37280
2016-07-20T06:58:46.948Z,38080
2016-07-20T06:59:46.749Z,38368
2016-07-20T07:00:46.800Z,39168
2016-07-20T07:01:46.741Z,39552
2016-07-20T07:02:46.821Z,40320
2016-07-20T07:03:46.863Z,41216
2016-07-20T07:04:47.039Z,42752
2016-07-20T07:05:46.719Z,43776
2016-07-20T07:06:46.723Z,43424
2016-07-20T07:07:46.703Z,44416
2016-07-20T07:08:46.742Z,43680
2016-07-20T07:09:48.285Z,43200
2016-07-20T07:10:46.678Z,42560
2016-07-20T07:11:46.749Z,44608
2016-07-20T07:12:46.681Z,45440
2016-07-20T07:13:47.775Z,46752
2016-07-20T07:14:47.018Z,45792
2016-07-20T07:15:48.605Z,44512
2016-07-20T07:16:48.427Z,45120
2016-07-20T07:17:47.433Z,44736
2016-07-20T07:18:47.193Z,45344
2016-07-20T07:19:47.463Z,44320
2016-07-20T07:20:47.563Z,44704
2016-07-20T07:21:46.621Z,45376
2016-07-20T07:22:46.619Z,45280
2016-07-20T07:23:47.549Z,46880
2016-07-20T07:24:46.617Z,44736
2016-07-20T07:25:46.651Z,44480
2016-07-20T07:26:47.003Z,46432
2016-07-20T07:27:46.583Z,46400
2016-07-20T07:28:46.649Z,45536
2016-07-20T07:29:46.577Z,46912
2016-07-20T07:30:46.746Z,48128
2016-07-20T07:31:46.568Z,48576
2016-07-20T07:32:46.561Z,46336
2016-07-20T07:33:46.805Z,47616
2016-07-20T07:34:46.693Z,50688
2016-07-20T07:35:46.551Z,49792
2016-07-20T07:36:46.559Z,48032
2016-07-20T07:37:46.717Z,46624
2016-07-20T07:38:46.551Z,47584
2016-07-20T07:39:48.219Z,50208
2016-07-20T07:40:48.373Z,52448
2016-07-20T07:41:46.922Z,52352
2016-07-20T07:42:46.658Z,53792
2016-07-20T07:43:46.797Z,51072
2016-07-20T07:44:46.551Z,51136
2016-07-20T07:45:46.501Z,53824
2016-07-20T07:46:46.574Z,53600
2016-07-20T07:47:46.494Z,53184
2016-07-20T07:48:46.668Z,53088
2016-07-20T07:49:46.531Z,51680
2016-07-20T07:50:46.516Z,50944
2016-07-20T07:51:46.475Z,51776
2016-07-20T07:52:46.467Z,53056
2016-07-20T07:53:46.494Z,53568
2016-07-20T07:54:46.614Z,52832
2016-07-20T07:55:46.527Z,51520
2016-07-20T07:56:46.492Z,53312
2016-07-20T07:57:46.450Z,55328
2016-07-20T07:58:46.491Z,57632
2016-07-20T07:59:46.490Z,58944
2016-07-20T08:00:46.450Z,58528
2016-07-20T08:01:46.445Z,57792
2016-07-20T08:02:46.669Z,59616
2016-07-20T08:03:46.864Z,58976
2016-07-20T08:04:46.501Z,59328
2016-07-20T08:05:46.425Z,61408
2016-07-20T08:06:46.424Z,60064
2016-07-20T08:07:46.425Z,57408
2016-07-20T08:08:46.607Z,60032
2016-07-20T08:09:46.585Z,61248
2016-07-20T08:10:46.667Z,60896
2016-07-20T08:11:46.726Z,61408
2016-07-20T08:12:47.102Z,62560
2016-07-20T08:13:46.457Z,62592
2016-07-20T08:14:46.550Z,63104
2016-07-20T08:15:46.436Z,63520
2016-07-20T08:16:46.444Z,63520
2016-07-20T08:17:47.115Z,63296
2016-07-20T08:18:47.397Z,63904
2016-07-20T08:19:46.398Z,66528
2016-07-20T08:20:48.031Z,66912
2016-07-20T08:21:46.393Z,66016
2016-07-20T08:22:46.392Z,64704
2016-07-20T08:23:46.392Z,65888
2016-07-20T08:24:47.783Z,66976
2016-07-20T08:25:46.753Z,67968
2016-07-20T08:26:47.013Z,69440
2016-07-20T08:27:47.606Z,68896
2016-07-20T08:28:46.404Z,68640
2016-07-20T08:29:47.074Z,68032
2016-07-20T08:30:46.645Z,69184
2016-07-20T08:31:46.600Z,68448
2016-07-20T08:32:46.379Z,68768
2016-07-20T08:33:47.330Z,68864
2016-07-20T08:34:46.382Z,70048
2016-07-20T08:35:47.560Z,72192
2016-07-20T08:36:46.382Z,71040
2016-07-20T08:37:47.957Z,69344
2016-07-20T08:38:49.820Z,68576
2016-07-20T08:39:46.399Z,69696
2016-07-20T08:40:46.547Z,68608
2016-07-20T08:41:47.197Z,69344
2016-07-20T08:42:48.166Z,72096
2016-07-20T08:43:48.269Z,72992
2016-07-20T08:44:47.402Z,72512
2016-07-20T08:45:46.858Z,72544
2016-07-20T08:46:46.386Z,72032
2016-07-20T08:47:47.212Z,70720
2016-07-20T08:48:46.483Z,75616
2016-07-20T08:49:46.698Z,76128
2016-07-20T08:50:47.537Z,72352
2016-07-20T08:51:46.549Z,77248
2016-07-20T08:52:48.269Z,76128
2016-07-20T08:53:46.380Z,73920
2016-07-20T08:54:46.871Z,73792
2016-07-20T08:55:47.360Z,73952
2016-07-20T08:56:46.555Z,74752
2016-07-20T08:57:46.576Z,77440
2016-07-20T08:58:47.489Z,78912
2016-07-20T08:59:46.606Z,77280
2016-07-20T09:00:46.500Z,76192
2016-07-20T09:01:46.995Z,76704
2016-07-20T09:02:46.702Z,76288
2016-07-20T09:03:46.441Z,77696
2016-07-20T09:04:46.373Z,77088
2016-07-20T09:05:46.465Z,74944
2016-07-20T09:06:47.205Z,75840
2016-07-20T09:07:46.376Z,77632
2016-07-20T09:08:47.134Z,78336
2016-07-20T09:09:46.378Z,77952
2016-07-20T09:10:46.444Z,78144
2016-07-20T09:11:46.422Z,79936
2016-07-20T09:12:47.079Z,81536
2016-07-20T09:13:46.834Z,78656
2016-07-20T09:14:46.856Z,76672
2016-07-20T09:15:46.383Z,76960
2016-07-20T09:16:47.084Z,75744
2016-07-20T09:17:46.386Z,75008
2016-07-20T09:18:46.811Z,76704
2016-07-20T09:19:46.475Z,77536
2016-07-20T09:20:46.557Z,78272
2016-07-20T09:21:47.091Z,79904
2016-07-20T09:22:46.760Z,81568
2016-07-20T09:23:47.267Z,82528
2016-07-20T09:24:46.870Z,79840
2016-07-20T09:25:48.187Z,80544
2016-07-20T09:26:46.761Z,79840
2016-07-20T09:27:46.560Z,77376
2016-07-20T09:28:46.694Z,78272
2016-07-20T09:29:46.487Z,79840
2016-07-20T09:30:47.799Z,80224
2016-07-20T09:31:48.238Z,82400
2016-07-20T09:32:47.976Z,85408
2016-07-20T09:33:48.066Z,85504
2016-07-20T09:34:47.353Z,84096
2016-07-20T09:35:48.931Z,87104
2016-07-20T09:36:48.169Z,83520
2016-07-20T09:37:47.578Z,85504
2016-07-20T09:38:48.404Z,87072
2016-07-20T09:39:49.032Z,83168
2016-07-20T09:40:46.417Z,84224
2016-07-20T09:41:46.420Z,87264
2016-07-20T09:42:46.447Z,87040
2016-07-20T09:43:46.543Z,87584
2016-07-20T09:44:46.427Z,86208
2016-07-20T09:45:46.578Z,84352
2016-07-20T09:46:47.083Z,81632
2016-07-20T09:47:46.776Z,83392
2016-07-20T09:48:46.435Z,86112
2016-07-20T09:49:47.139Z,84288
2016-07-20T09:50:47.128Z,81920
2016-07-20T09:51:46.442Z,80288
2016-07-20T09:52:46.909Z,84192
2016-07-20T09:53:47.686Z,86272
2016-07-20T09:54:46.588Z,86368
2016-07-20T09:55:47.473Z,83744
2016-07-20T09:56:46.698Z,82944
2016-07-20T09:57:46.456Z,85280
2016-07-20T09:58:46.576Z,86560
2016-07-20T09:59:46.482Z,85120
2016-07-20T10:00:46.629Z,86912
2016-07-20T10:01:46.701Z,86944
2016-07-20T10:02:48.054Z,86944
2016-07-20T10:03:46.958Z,87776
2016-07-20T10:04:47.941Z,85856
2016-07-20T10:05:47.328Z,86272
2016-07-20T10:06:47.676Z,88928
2016-07-20T10:07:47.383Z,87264
2016-07-20T10:08:46.527Z,87296
2016-07-20T10:09:46.802Z,90688
2016-07-20T10:10:46.628Z,89216
2016-07-20T10:11:46.691Z,87392
2016-07-20T10:12:46.556Z,88320
2016-07-20T10:13:48.082Z,90080
2016-07-20T10:14:46.891Z,87008
2016-07-20T10:15:48.136Z,89568
2016-07-20T10:16:46.517Z,91488
2016-07-20T10:17:46.536Z,91232
2016-07-20T10:18:46.523Z,89184
2016-07-20T10:19:47.394Z,87840
2016-07-20T10:20:46.718Z,90592
2016-07-20T10:21:46.535Z,92640
2016-07-20T10:22:46.694Z,94400
2016-07-20T10:23:46.681Z,93632
2016-07-20T10:24:47.256Z,91616
2016-07-20T10:25:46.549Z,93088
2016-07-20T10:26:47.218Z,94144
2016-07-20T10:27:46.862Z,90016
2016-07-20T10:28:47.912Z,93888
2016-07-20T10:29:47.277Z,91744
2016-07-20T10:30:46.960Z,68736
2016-07-20T10:31:46.636Z,25376
2016-07-20T10:32:46.577Z,10232
2016-07-20T10:33:46.940Z,10212
2016-07-20T10:34:46.648Z,15292
2016-07-20T10:35:46.701Z,58368
2016-07-20T10:36:47.776Z,91936
2016-07-20T10:37:46.886Z,92480
2016-07-20T10:38:47.137Z,93792
2016-07-20T10:39:46.595Z,94240
2016-07-20T10:40:47.252Z,96576
2016-07-20T10:41:46.713Z,96768
2016-07-20T10:42:46.667Z,95776
2016-07-20T10:43:46.827Z,94400
2016-07-20T10:44:46.621Z,93280
2016-07-20T10:45:46.843Z,93376
2016-07-20T10:46:46.658Z,93920
2016-07-20T10:47:46.616Z,91872
2016-07-20T10:48:46.771Z,93536
2016-07-20T10:49:47.893Z,94016
2016-07-20T10:50:47.011Z,91200
2016-07-20T10:51:46.718Z,88032
2016-07-20T10:52:46.762Z,89152
2016-07-20T10:53:46.866Z,88064
2016-07-20T10:54:47.270Z,86368
2016-07-20T10:55:46.737Z,89792
2016-07-20T10:56:47.409Z,95360
2016-07-20T10:57:46.665Z,95328
2016-07-20T10:58:46.660Z,97056
2016-07-20T10:59:46.653Z,97408
2016-07-20T11:00:46.700Z,94336
2016-07-20T11:01:46.658Z,91808
2016-07-20T11:02:46.669Z,90720
2016-07-20T11:03:46.664Z,92480
2016-07-20T11:04:47.393Z,92544
2016-07-20T11:05:47.566Z,91424
2016-07-20T11:06:46.787Z,90240
2016-07-20T11:07:48.382Z,90176
2016-07-20T11:08:47.159Z,88896
2016-07-20T11:09:46.711Z,86400
2016-07-20T11:10:47.706Z,87104
2016-07-20T11:11:47.899Z,89856
2016-07-20T11:12:46.716Z,91136
2016-07-20T11:13:47.199Z,89376
2016-07-20T11:14:46.786Z,91872
2016-07-20T11:15:48.073Z,93376
2016-07-20T11:16:48.800Z,93728
2016-07-20T11:17:48.257Z,92864
2016-07-20T11:18:48.303Z,94976
2016-07-20T11:19:47.352Z,94656
2016-07-20T11:20:48.669Z,93024
2016-07-20T11:21:48.460Z,90656
2016-07-20T11:22:46.793Z,90432
2016-07-20T11:23:47.778Z,92544
2016-07-20T11:24:48.561Z,91552
2016-07-20T11:25:48.219Z,89984
2016-07-20T11:26:47.022Z,88928
2016-07-20T11:27:47.056Z,94560
2016-07-20T11:28:47.073Z,96000
2016-07-20T11:29:47.964Z,90208
2016-07-20T11:30:47.510Z,88992
2016-07-20T11:31:47.015Z,91296
2016-07-20T11:32:46.809Z,89024
2016-07-20T11:33:47.005Z,87040
2016-07-20T11:34:48.641Z,90976
2016-07-20T11:35:49.059Z,92896
2016-07-20T11:36:48.554Z,92512
2016-07-20T11:37:49.509Z,94752
2016-07-20T11:38:47.825Z,94240
2016-07-20T11:39:48.408Z,93312
2016-07-20T11:40:47.501Z,90368
2016-07-20T11:41:48.291Z,90400
2016-07-20T11:42:48.621Z,91520
2016-07-20T11:43:47.262Z,92096
2016-07-20T11:44:48.076Z,89248
2016-07-20T11:45:47.951Z,85504
2016-07-20T11:46:47.375Z,89152
2016-07-20T11:47:47.705Z,91808
2016-07-20T11:48:48.063Z,93024
2016-07-20T11:49:49.081Z,94656
2016-07-20T11:50:47.698Z,92448
2016-07-20T11:51:47.075Z,91840
2016-07-20T11:52:47.734Z,93216
2016-07-20T11:53:48.583Z,95456
2016-07-20T11:54:47.781Z,95648
2016-07-20T11:55:47.649Z,92608
2016-07-20T11:56:47.583Z,88064
2016-07-20T11:57:48.449Z,92224
2016-07-20T11:58:47.253Z,95872
2016-07-20T11:59:47.423Z,97664
2016-07-20T12:00:48.165Z,98816
2016-07-20T12:01:48.345Z,96576
2016-07-20T12:02:47.650Z,98304
2016-07-20T12:03:47.340Z,96832
2016-07-20T12:04:47.206Z,94080
2016-07-20T12:05:47.289Z,96640
2016-07-20T12:06:46.980Z,99200
2016-07-20T12:07:47.676Z,101280
2016-07-20T12:08:47.099Z,102176
2016-07-20T12:09:47.054Z,102016
2016-07-20T12:10:47.017Z,103136
2016-07-20T12:11:47.126Z,100384
2016-07-20T12:12:47.025Z,102208
2016-07-20T12:13:47.018Z,104608
2016-07-20T12:14:47.027Z,103200
2016-07-20T12:15:47.652Z,101376
2016-07-20T12:16:47.736Z,102016
2016-07-20T12:17:47.838Z,101056
2016-07-20T12:18:47.196Z,100192
2016-07-20T12:19:47.996Z,99872
2016-07-20T12:20:47.202Z,100096
2016-07-20T12:21:47.092Z,102496
2016-07-20T12:22:48.745Z,101504
2016-07-20T12:23:47.695Z,97152
2016-07-20T12:24:47.737Z,99648
2016-07-20T12:25:47.224Z,101216
2016-07-20T12:26:48.271Z,99968
2016-07-20T12:27:48.935Z,100480
2016-07-20T12:28:47.258Z,97696
2016-07-20T12:29:47.827Z,100736
2016-07-20T12:30:48.375Z,105408
2016-07-20T12:31:47.859Z,99456
2016-07-20T12:32:47.827Z,95616
2016-07-20T12:33:47.999Z,93472
2016-07-20T12:34:47.916Z,90496
2016-07-20T12:35:47.839Z,90304
2016-07-20T12:36:47.909Z,90976
2016-07-20T12:37:48.633Z,92768
2016-07-20T12:38:47.888Z,91488
2016-07-20T12:39:48.437Z,89568
2016-07-20T12:40:47.494Z,90304
2016-07-20T12:41:47.336Z,93120
2016-07-20T12:42:47.498Z,93920
2016-07-20T12:43:47.661Z,94784
2016-07-20T12:44:48.612Z,95968
2016-07-20T12:45:47.231Z,96832
2016-07-20T12:46:47.214Z,95360
2016-07-20T12:47:47.314Z,94112
2016-07-20T12:48:47.282Z,93888
2016-07-20T12:49:47.237Z,93152
2016-07-20T12:50:47.461Z,91200
2016-07-20T12:51:47.252Z,89184
2016-07-20T12:52:47.252Z,89184
2016-07-20T12:53:47.276Z,91296
2016-07-20T12:54:47.322Z,91616
2016-07-20T12:55:47.313Z,92672
2016-07-20T12:56:47.280Z,91168
2016-07-20T12:57:48.269Z,89088
2016-07-20T12:58:47.293Z,88064
2016-07-20T12:59:47.297Z,87680
2016-07-20T13:00:47.306Z,87072
2016-07-20T13:01:47.311Z,86752
2016-07-20T13:02:47.312Z,87136
2016-07-20T13:03:47.392Z,85632
2016-07-20T13:04:47.328Z,84928
2016-07-20T13:05:47.332Z,83552
2016-07-20T13:06:47.613Z,81120
2016-07-20T13:07:47.348Z,79712
2016-07-20T13:08:47.356Z,79232
2016-07-20T13:09:47.364Z,79712
2016-07-20T13:10:47.378Z,82656
2016-07-20T13:11:47.375Z,83008
2016-07-20T13:12:47.586Z,83360
2016-07-20T13:13:47.451Z,83072
2016-07-20T13:14:48.500Z,80928
2016-07-20T13:15:47.855Z,79168
2016-07-20T13:16:47.406Z,82272
2016-07-20T13:17:47.430Z,82912
2016-07-20T13:18:47.575Z,81600
2016-07-20T13:19:47.418Z,81472
2016-07-20T13:20:47.546Z,81024
2016-07-20T13:21:47.789Z,79296
2016-07-20T13:22:47.747Z,79456
2016-07-20T13:23:47.646Z,79808